sensor_id;sensor_type;location;lat;lon;timestamp;P1;durP1;ratioP1;P2;durP2;ratioP2
48205;SDS011;33995;48.202;16.260;2023-04-03T00:01:52;3.93;;;3.63;;
48205;SDS011;33995;48.202;16.260;2023-04-03T00:04:22;3.90;;;3.50;;
48205;SDS011;33995;48.202;16.260;2023-04-03T00:06:54;3.97;;;3.60;;
48205;SDS011;33995;48.202;16.260;2023-04-03T00:09:31;3.60;;;3.30;;
48205;SDS011;33995;48.202;16.260;2023-04-03T00:12:01;5.13;;;3.57;;
48205;SDS011;33995;48.202;16.260;2023-04-03T00:14:32;3.53;;;3.23;;
48205;SDS011;33995;48.202;16.260;2023-04-03T00:17:03;3.60;;;3.30;;
48205;SDS011;33995;48.202;16.260;2023-04-03T00:19:35;3.60;;;3.30;;
48205;SDS011;33995;48.202;16.260;2023-04-03T00:22:06;4.03;;;3.60;;
48205;SDS011;33995;48.202;16.260;2023-04-03T00:24:42;3.37;;;3.13;;
48205;SDS011;33995;48.202;16.260;2023-04-03T00:27:13;4.07;;;3.70;;
48205;SDS011;33995;48.202;16.260;2023-04-03T00:29:43;3.90;;;3.50;;
48205;SDS011;33995;48.202;16.260;2023-04-03T00:32:13;4.00;;;3.60;;
48205;SDS011;33995;48.202;16.260;2023-04-03T00:34:43;3.80;;;3.40;;
48205;SDS011;33995;48.202;16.260;2023-04-03T00:37:11;3.70;;;3.40;;
48205;SDS011;33995;48.202;16.260;2023-04-03T00:39:43;3.47;;;3.17;;
48205;SDS011;33995;48.202;16.260;2023-04-03T00:42:13;4.00;;;3.60;;
48205;SDS011;33995;48.202;16.260;2023-04-03T00:47:27;3.80;;;3.50;;
48205;SDS011;33995;48.202;16.260;2023-04-03T00:50:00;3.80;;;3.40;;
48205;SDS011;33995;48.202;16.260;2023-04-03T00:52:38;3.80;;;3.50;;
48205;SDS011;33995;48.202;16.260;2023-04-03T00:55:10;3.70;;;3.40;;
48205;SDS011;33995;48.202;16.260;2023-04-03T00:57:45;4.13;;;3.60;;
48205;SDS011;33995;48.202;16.260;2023-04-03T01:00:21;4.80;;;3.60;;
48205;SDS011;33995;48.202;16.260;2023-04-03T01:02:53;3.50;;;3.20;;
48205;SDS011;33995;48.202;16.260;2023-04-03T01:05:26;3.97;;;3.57;;
48205;SDS011;33995;48.202;16.260;2023-04-03T01:07:55;3.80;;;3.50;;
48205;SDS011;33995;48.202;16.260;2023-04-03T01:10:29;3.83;;;3.47;;
48205;SDS011;33995;48.202;16.260;2023-04-03T01:13:01;4.03;;;3.60;;
48205;SDS011;33995;48.202;16.260;2023-04-03T01:15:44;3.97;;;3.50;;
48205;SDS011;33995;48.202;16.260;2023-04-03T01:18:12;4.10;;;3.70;;
48205;SDS011;33995;48.202;16.260;2023-04-03T01:27:06;3.77;;;3.47;;
48205;SDS011;33995;48.202;16.260;2023-04-03T01:29:41;3.60;;;3.30;;
48205;SDS011;33995;48.202;16.260;2023-04-03T01:32:15;4.03;;;3.70;;
48205;SDS011;33995;48.202;16.260;2023-04-03T01:34:48;4.17;;;3.77;;
48205;SDS011;33995;48.202;16.260;2023-04-03T01:37:17;4.13;;;3.73;;
48205;SDS011;33995;48.202;16.260;2023-04-03T01:39:47;4.60;;;3.63;;
48205;SDS011;33995;48.202;16.260;2023-04-03T01:42:15;3.93;;;3.50;;
48205;SDS011;33995;48.202;16.260;2023-04-03T01:44:45;4.07;;;3.67;;
48205;SDS011;33995;48.202;16.260;2023-04-03T01:47:17;3.90;;;3.50;;
48205;SDS011;33995;48.202;16.260;2023-04-03T01:49:49;3.97;;;3.57;;
48205;SDS011;33995;48.202;16.260;2023-04-03T01:52:18;3.73;;;3.43;;
48205;SDS011;33995;48.202;16.260;2023-04-03T01:54:51;4.03;;;3.63;;
48205;SDS011;33995;48.202;16.260;2023-04-03T01:57:22;4.17;;;3.67;;
48205;SDS011;33995;48.202;16.260;2023-04-03T01:59:56;3.77;;;3.47;;
48205;SDS011;33995;48.202;16.260;2023-04-03T02:02:26;3.97;;;3.67;;
48205;SDS011;33995;48.202;16.260;2023-04-03T02:04:57;4.50;;;3.87;;
48205;SDS011;33995;48.202;16.260;2023-04-03T02:07:27;4.10;;;3.70;;
48205;SDS011;33995;48.202;16.260;2023-04-03T02:09:58;4.00;;;3.70;;
48205;SDS011;33995;48.202;16.260;2023-04-03T02:12:29;3.93;;;3.63;;
48205;SDS011;33995;48.202;16.260;2023-04-03T02:15:00;4.40;;;3.83;;
48205;SDS011;33995;48.202;16.260;2023-04-03T02:17:38;4.13;;;3.83;;
48205;SDS011;33995;48.202;16.260;2023-04-03T02:20:10;4.50;;;4.10;;
48205;SDS011;33995;48.202;16.260;2023-04-03T02:22:42;4.20;;;3.80;;
48205;SDS011;33995;48.202;16.260;2023-04-03T02:25:15;4.37;;;3.97;;
48205;SDS011;33995;48.202;16.260;2023-04-03T02:27:47;4.40;;;4.00;;
48205;SDS011;33995;48.202;16.260;2023-04-03T02:30:16;4.13;;;3.73;;
48205;SDS011;33995;48.202;16.260;2023-04-03T02:32:46;4.50;;;4.10;;
48205;SDS011;33995;48.202;16.260;2023-04-03T02:35:16;4.17;;;3.77;;
48205;SDS011;33995;48.202;16.260;2023-04-03T02:37:48;4.23;;;3.83;;
48205;SDS011;33995;48.202;16.260;2023-04-03T02:40:31;4.43;;;4.03;;
48205;SDS011;33995;48.202;16.260;2023-04-03T02:43:00;4.60;;;4.20;;
48205;SDS011;33995;48.202;16.260;2023-04-03T02:45:29;4.40;;;4.00;;
48205;SDS011;33995;48.202;16.260;2023-04-03T02:47:59;4.53;;;4.07;;
48205;SDS011;33995;48.202;16.260;2023-04-03T02:50:30;4.60;;;4.20;;
48205;SDS011;33995;48.202;16.260;2023-04-03T02:53:02;4.50;;;4.10;;
48205;SDS011;33995;48.202;16.260;2023-04-03T02:55:35;4.63;;;4.20;;
48205;SDS011;33995;48.202;16.260;2023-04-03T02:58:06;4.73;;;4.27;;
48205;SDS011;33995;48.202;16.260;2023-04-03T03:00:39;4.57;;;4.07;;
48205;SDS011;33995;48.202;16.260;2023-04-03T03:03:11;4.40;;;4.00;;
48205;SDS011;33995;48.202;16.260;2023-04-03T03:05:45;4.87;;;3.97;;
48205;SDS011;33995;48.202;16.260;2023-04-03T03:08:20;4.67;;;4.00;;
48205;SDS011;33995;48.202;16.260;2023-04-03T03:10:52;4.40;;;4.00;;
48205;SDS011;33995;48.202;16.260;2023-04-03T03:13:22;4.37;;;3.70;;
48205;SDS011;33995;48.202;16.260;2023-04-03T03:15:53;4.50;;;4.10;;
48205;SDS011;33995;48.202;16.260;2023-04-03T03:18:24;4.40;;;3.83;;
48205;SDS011;33995;48.202;16.260;2023-04-03T03:20:55;4.37;;;3.93;;
48205;SDS011;33995;48.202;16.260;2023-04-03T03:23:27;4.60;;;4.10;;
48205;SDS011;33995;48.202;16.260;2023-04-03T03:26:05;4.50;;;4.10;;
48205;SDS011;33995;48.202;16.260;2023-04-03T03:28:37;4.30;;;3.90;;
48205;SDS011;33995;48.202;16.260;2023-04-03T03:31:12;6.00;;;4.40;;
48205;SDS011;33995;48.202;16.260;2023-04-03T03:33:44;4.70;;;4.30;;
48205;SDS011;33995;48.202;16.260;2023-04-03T03:36:16;4.37;;;3.97;;
48205;SDS011;33995;48.202;16.260;2023-04-03T03:38:44;4.60;;;4.20;;
48205;SDS011;33995;48.202;16.260;2023-04-03T03:41:16;4.60;;;4.20;;
48205;SDS011;33995;48.202;16.260;2023-04-03T03:43:47;4.80;;;4.40;;
48205;SDS011;33995;48.202;16.260;2023-04-03T03:46:19;4.83;;;4.13;;
48205;SDS011;33995;48.202;16.260;2023-04-03T03:48:56;4.50;;;4.10;;
48205;SDS011;33995;48.202;16.260;2023-04-03T03:51:28;4.33;;;3.93;;
48205;SDS011;33995;48.202;16.260;2023-04-03T03:54:00;4.37;;;3.97;;
48205;SDS011;33995;48.202;16.260;2023-04-03T03:56:29;4.70;;;4.20;;
48205;SDS011;33995;48.202;16.260;2023-04-03T03:58:58;4.60;;;4.20;;
48205;SDS011;33995;48.202;16.260;2023-04-03T04:01:32;4.97;;;4.50;;
48205;SDS011;33995;48.202;16.260;2023-04-03T04:04:03;4.80;;;4.07;;
48205;SDS011;33995;48.202;16.260;2023-04-03T04:06:37;4.90;;;3.90;;
48205;SDS011;33995;48.202;16.260;2023-04-03T04:09:11;4.87;;;4.20;;
48205;SDS011;33995;48.202;16.260;2023-04-03T04:11:43;4.27;;;3.87;;
48205;SDS011;33995;48.202;16.260;2023-04-03T04:14:14;4.37;;;3.97;;
48205;SDS011;33995;48.202;16.260;2023-04-03T04:16:44;5.00;;;4.50;;
48205;SDS011;33995;48.202;16.260;2023-04-03T04:19:21;4.00;;;3.70;;
48205;SDS011;33995;48.202;16.260;2023-04-03T04:21:51;4.10;;;3.70;;
48205;SDS011;33995;48.202;16.260;2023-04-03T04:24:19;7.30;;;4.07;;
48205;SDS011;33995;48.202;16.260;2023-04-03T04:26:54;4.10;;;3.67;;
48205;SDS011;33995;48.202;16.260;2023-04-03T04:29:25;4.37;;;4.00;;
48205;SDS011;33995;48.202;16.260;2023-04-03T04:31:56;4.47;;;3.90;;
48205;SDS011;33995;48.202;16.260;2023-04-03T04:34:28;4.03;;;3.63;;
48205;SDS011;33995;48.202;16.260;2023-04-03T04:37:00;4.13;;;3.63;;
48205;SDS011;33995;48.202;16.260;2023-04-03T04:39:31;4.00;;;3.70;;
48205;SDS011;33995;48.202;16.260;2023-04-03T04:42:04;4.53;;;3.67;;
48205;SDS011;33995;48.202;16.260;2023-04-03T04:44:35;4.37;;;3.80;;
48205;SDS011;33995;48.202;16.260;2023-04-03T04:47:09;4.40;;;4.00;;
48205;SDS011;33995;48.202;16.260;2023-04-03T04:49:38;3.90;;;3.50;;
48205;SDS011;33995;48.202;16.260;2023-04-03T04:52:11;4.13;;;3.73;;
48205;SDS011;33995;48.202;16.260;2023-04-03T04:54:42;4.40;;;4.00;;
48205;SDS011;33995;48.202;16.260;2023-04-03T04:57:15;4.37;;;3.93;;
48205;SDS011;33995;48.202;16.260;2023-04-03T04:59:50;4.50;;;4.10;;
48205;SDS011;33995;48.202;16.260;2023-04-03T05:02:19;4.77;;;4.27;;
48205;SDS011;33995;48.202;16.260;2023-04-03T05:04:51;4.83;;;4.10;;
48205;SDS011;33995;48.202;16.260;2023-04-03T05:07:26;4.20;;;3.80;;
48205;SDS011;33995;48.202;16.260;2023-04-03T05:09:58;4.20;;;3.80;;
48205;SDS011;33995;48.202;16.260;2023-04-03T05:12:30;4.40;;;4.00;;
48205;SDS011;33995;48.202;16.260;2023-04-03T05:15:03;4.00;;;3.60;;
48205;SDS011;33995;48.202;16.260;2023-04-03T05:17:34;4.17;;;3.67;;
48205;SDS011;33995;48.202;16.260;2023-04-03T05:20:12;3.57;;;3.27;;
48205;SDS011;33995;48.202;16.260;2023-04-03T05:22:47;4.03;;;3.27;;
48205;SDS011;33995;48.202;16.260;2023-04-03T05:25:18;4.07;;;3.40;;
48205;SDS011;33995;48.202;16.260;2023-04-03T05:27:48;4.07;;;3.57;;
48205;SDS011;33995;48.202;16.260;2023-04-03T05:30:21;5.17;;;3.47;;
48205;SDS011;33995;48.202;16.260;2023-04-03T05:33:02;4.40;;;3.57;;
48205;SDS011;33995;48.202;16.260;2023-04-03T05:35:41;5.33;;;3.90;;
48205;SDS011;33995;48.202;16.260;2023-04-03T05:38:20;4.27;;;3.50;;
48205;SDS011;33995;48.202;16.260;2023-04-03T05:40:58;6.23;;;4.60;;
48205;SDS011;33995;48.202;16.260;2023-04-03T05:43:29;5.53;;;3.83;;
48205;SDS011;33995;48.202;16.260;2023-04-03T05:45:59;6.83;;;5.47;;
48205;SDS011;33995;48.202;16.260;2023-04-03T05:48:30;4.43;;;3.97;;
48205;SDS011;33995;48.202;16.260;2023-04-03T05:51:04;6.17;;;5.10;;
48205;SDS011;33995;48.202;16.260;2023-04-03T05:53:37;5.40;;;4.13;;
48205;SDS011;33995;48.202;16.260;2023-04-03T05:56:07;4.07;;;3.67;;
48205;SDS011;33995;48.202;16.260;2023-04-03T05:58:41;4.47;;;4.07;;
48205;SDS011;33995;48.202;16.260;2023-04-03T06:01:14;4.40;;;3.77;;
48205;SDS011;33995;48.202;16.260;2023-04-03T06:03:45;4.73;;;3.70;;
48205;SDS011;33995;48.202;16.260;2023-04-03T06:06:18;3.90;;;3.50;;
48205;SDS011;33995;48.202;16.260;2023-04-03T06:08:55;4.27;;;3.87;;
48205;SDS011;33995;48.202;16.260;2023-04-03T06:11:22;4.30;;;3.53;;
48205;SDS011;33995;48.202;16.260;2023-04-03T06:13:50;4.43;;;3.80;;
48205;SDS011;33995;48.202;16.260;2023-04-03T06:16:21;4.00;;;3.30;;
48205;SDS011;33995;48.202;16.260;2023-04-03T06:18:52;10.47;;;4.40;;
48205;SDS011;33995;48.202;16.260;2023-04-03T06:21:24;4.63;;;3.40;;
48205;SDS011;33995;48.202;16.260;2023-04-03T06:23:54;4.20;;;3.73;;
48205;SDS011;33995;48.202;16.260;2023-04-03T06:26:26;4.10;;;3.70;;
48205;SDS011;33995;48.202;16.260;2023-04-03T06:28:57;3.70;;;3.40;;
48205;SDS011;33995;48.202;16.260;2023-04-03T06:31:29;9.27;;;4.30;;
48205;SDS011;33995;48.202;16.260;2023-04-03T06:34:02;4.87;;;3.83;;
48205;SDS011;33995;48.202;16.260;2023-04-03T06:36:31;5.03;;;4.30;;
48205;SDS011;33995;48.202;16.260;2023-04-03T06:39:00;5.10;;;3.90;;
48205;SDS011;33995;48.202;16.260;2023-04-03T06:41:30;5.00;;;4.10;;
48205;SDS011;33995;48.202;16.260;2023-04-03T06:44:01;4.13;;;3.73;;
48205;SDS011;33995;48.202;16.260;2023-04-03T06:46:30;4.93;;;3.90;;
48205;SDS011;33995;48.202;16.260;2023-04-03T06:49:02;4.30;;;3.90;;
48205;SDS011;33995;48.202;16.260;2023-04-03T06:51:33;4.73;;;4.20;;
48205;SDS011;33995;48.202;16.260;2023-04-03T06:54:11;4.63;;;4.00;;
48205;SDS011;33995;48.202;16.260;2023-04-03T06:56:53;4.97;;;4.40;;
48205;SDS011;33995;48.202;16.260;2023-04-03T06:59:31;6.63;;;5.30;;
48205;SDS011;33995;48.202;16.260;2023-04-03T07:02:01;5.77;;;5.23;;
48205;SDS011;33995;48.202;16.260;2023-04-03T07:04:33;7.90;;;7.10;;
48205;SDS011;33995;48.202;16.260;2023-04-03T07:07:01;5.40;;;4.53;;
48205;SDS011;33995;48.202;16.260;2023-04-03T07:09:29;6.93;;;5.70;;
48205;SDS011;33995;48.202;16.260;2023-04-03T07:12:02;8.30;;;6.80;;
48205;SDS011;33995;48.202;16.260;2023-04-03T07:14:33;9.33;;;6.57;;
48205;SDS011;33995;48.202;16.260;2023-04-03T07:17:04;5.10;;;4.20;;
48205;SDS011;33995;48.202;16.260;2023-04-03T07:19:37;27.93;;;18.10;;
48205;SDS011;33995;48.202;16.260;2023-04-03T07:22:08;16.77;;;13.00;;
48205;SDS011;33995;48.202;16.260;2023-04-03T07:24:42;8.63;;;7.30;;
48205;SDS011;33995;48.202;16.260;2023-04-03T07:27:13;13.50;;;11.07;;
48205;SDS011;33995;48.202;16.260;2023-04-03T07:29:43;7.33;;;5.23;;
48205;SDS011;33995;48.202;16.260;2023-04-03T07:32:12;10.30;;;8.30;;
48205;SDS011;33995;48.202;16.260;2023-04-03T07:34:46;12.53;;;9.00;;
48205;SDS011;33995;48.202;16.260;2023-04-03T07:37:17;11.67;;;10.30;;
48205;SDS011;33995;48.202;16.260;2023-04-03T07:39:48;10.60;;;9.40;;
48205;SDS011;33995;48.202;16.260;2023-04-03T07:42:21;7.57;;;6.63;;
48205;SDS011;33995;48.202;16.260;2023-04-03T07:44:52;5.10;;;4.60;;
48205;SDS011;33995;48.202;16.260;2023-04-03T07:47:34;5.50;;;4.87;;
48205;SDS011;33995;48.202;16.260;2023-04-03T07:50:03;5.00;;;4.50;;
48205;SDS011;33995;48.202;16.260;2023-04-03T07:52:37;5.00;;;4.50;;
48205;SDS011;33995;48.202;16.260;2023-04-03T07:55:08;5.43;;;4.43;;
48205;SDS011;33995;48.202;16.260;2023-04-03T07:57:37;7.03;;;5.13;;
48205;SDS011;33995;48.202;16.260;2023-04-03T08:00:07;6.83;;;5.30;;
48205;SDS011;33995;48.202;16.260;2023-04-03T08:02:38;11.47;;;9.57;;
48205;SDS011;33995;48.202;16.260;2023-04-03T08:05:10;8.03;;;6.83;;
48205;SDS011;33995;48.202;16.260;2023-04-03T08:07:48;8.23;;;7.10;;
48205;SDS011;33995;48.202;16.260;2023-04-03T08:10:16;7.40;;;6.60;;
48205;SDS011;33995;48.202;16.260;2023-04-03T08:12:47;7.03;;;5.90;;
48205;SDS011;33995;48.202;16.260;2023-04-03T08:15:16;5.73;;;5.23;;
48205;SDS011;33995;48.202;16.260;2023-04-03T08:17:48;4.43;;;3.90;;
48205;SDS011;33995;48.202;16.260;2023-04-03T08:20:24;6.03;;;4.93;;
48205;SDS011;33995;48.202;16.260;2023-04-03T08:22:55;4.83;;;4.20;;
48205;SDS011;33995;48.202;16.260;2023-04-03T08:25:24;6.17;;;5.47;;
48205;SDS011;33995;48.202;16.260;2023-04-03T08:27:54;5.60;;;5.10;;
48205;SDS011;33995;48.202;16.260;2023-04-03T08:30:29;5.00;;;3.40;;
48205;SDS011;33995;48.202;16.260;2023-04-03T08:33:04;5.67;;;4.00;;
48205;SDS011;33995;48.202;16.260;2023-04-03T08:35:32;4.40;;;4.00;;
48205;SDS011;33995;48.202;16.260;2023-04-03T08:38:14;4.77;;;4.10;;
48205;SDS011;33995;48.202;16.260;2023-04-03T08:40:41;4.60;;;4.10;;
48205;SDS011;33995;48.202;16.260;2023-04-03T08:49:42;3.77;;;3.23;;
48205;SDS011;33995;48.202;16.260;2023-04-03T08:52:40;4.90;;;3.40;;
48205;SDS011;33995;48.202;16.260;2023-04-03T08:55:54;4.00;;;3.60;;
48205;SDS011;33995;48.202;16.260;2023-04-03T08:58:20;3.60;;;3.30;;
48205;SDS011;33995;48.202;16.260;2023-04-03T09:01:12;3.97;;;3.50;;
48205;SDS011;33995;48.202;16.260;2023-04-03T09:03:50;3.97;;;3.43;;
48205;SDS011;33995;48.202;16.260;2023-04-03T09:06:22;3.90;;;3.50;;
48205;SDS011;33995;48.202;16.260;2023-04-03T09:15:13;4.40;;;3.67;;
48205;SDS011;33995;48.202;16.260;2023-04-03T09:21:13;3.90;;;3.50;;
48205;SDS011;33995;48.202;16.260;2023-04-03T09:23:52;5.53;;;5.00;;
48205;SDS011;33995;48.202;16.260;2023-04-03T09:29:22;3.53;;;3.23;;
48205;SDS011;33995;48.202;16.260;2023-04-03T09:32:01;4.17;;;3.10;;
48205;SDS011;33995;48.202;16.260;2023-04-03T09:34:36;3.60;;;3.30;;
48205;SDS011;33995;48.202;16.260;2023-04-03T09:37:12;3.27;;;2.80;;
48205;SDS011;33995;48.202;16.260;2023-04-03T09:43:20;2.83;;;2.63;;
48205;SDS011;33995;48.202;16.260;2023-04-03T09:46:30;3.00;;;2.70;;
48205;SDS011;33995;48.202;16.260;2023-04-03T09:49:04;2.90;;;2.60;;
48205;SDS011;33995;48.202;16.260;2023-04-03T09:51:41;3.40;;;2.77;;
48205;SDS011;33995;48.202;16.260;2023-04-03T09:57:10;4.30;;;3.57;;
48205;SDS011;33995;48.202;16.260;2023-04-03T10:02:38;3.20;;;2.43;;
48205;SDS011;33995;48.202;16.260;2023-04-03T10:05:28;2.93;;;2.70;;
48205;SDS011;33995;48.202;16.260;2023-04-03T10:11:08;2.90;;;2.60;;
48205;SDS011;33995;48.202;16.260;2023-04-03T10:13:55;2.93;;;2.50;;
48205;SDS011;33995;48.202;16.260;2023-04-03T10:25:19;5.03;;;2.90;;
48205;SDS011;33995;48.202;16.260;2023-04-03T10:30:55;3.93;;;2.70;;
48205;SDS011;33995;48.202;16.260;2023-04-03T10:33:41;2.70;;;2.50;;
48205;SDS011;33995;48.202;16.260;2023-04-03T10:39:33;3.60;;;2.80;;
48205;SDS011;33995;48.202;16.260;2023-04-03T10:42:32;2.80;;;2.60;;
48205;SDS011;33995;48.202;16.260;2023-04-03T10:48:29;2.97;;;2.77;;
48205;SDS011;33995;48.202;16.260;2023-04-03T10:54:45;3.43;;;3.10;;
48205;SDS011;33995;48.202;16.260;2023-04-03T10:57:45;3.57;;;3.00;;
48205;SDS011;33995;48.202;16.260;2023-04-03T11:00:20;3.33;;;3.03;;
48205;SDS011;33995;48.202;16.260;2023-04-03T11:03:00;3.77;;;3.20;;
48205;SDS011;33995;48.202;16.260;2023-04-03T11:05:37;3.37;;;2.90;;
48205;SDS011;33995;48.202;16.260;2023-04-03T11:11:22;3.50;;;3.17;;
48205;SDS011;33995;48.202;16.260;2023-04-03T11:17:41;4.13;;;3.10;;
48205;SDS011;33995;48.202;16.260;2023-04-03T11:20:08;3.13;;;2.63;;
48205;SDS011;33995;48.202;16.260;2023-04-03T11:22:58;3.43;;;2.73;;
48205;SDS011;33995;48.202;16.260;2023-04-03T11:25:32;3.57;;;2.70;;
48205;SDS011;33995;48.202;16.260;2023-04-03T11:28:13;3.10;;;2.80;;
48205;SDS011;33995;48.202;16.260;2023-04-03T11:37:11;3.63;;;2.63;;
48205;SDS011;33995;48.202;16.260;2023-04-03T11:40:18;3.87;;;2.87;;
48205;SDS011;33995;48.202;16.260;2023-04-03T11:45:40;3.20;;;2.80;;
48205;SDS011;33995;48.202;16.260;2023-04-03T11:51:38;3.00;;;2.70;;
48205;SDS011;33995;48.202;16.260;2023-04-03T12:03:35;3.23;;;2.90;;
48205;SDS011;33995;48.202;16.260;2023-04-03T12:07:02;4.30;;;3.60;;
48205;SDS011;33995;48.202;16.260;2023-04-03T12:12:35;3.30;;;2.90;;
48205;SDS011;33995;48.202;16.260;2023-04-03T12:21:13;3.23;;;2.93;;
48205;SDS011;33995;48.202;16.260;2023-04-03T12:26:43;3.27;;;2.90;;
48205;SDS011;33995;48.202;16.260;2023-04-03T12:47:08;3.83;;;3.43;;
48205;SDS011;33995;48.202;16.260;2023-04-03T12:50:28;4.83;;;3.90;;
48205;SDS011;33995;48.202;16.260;2023-04-03T12:53:21;4.47;;;3.27;;
48205;SDS011;33995;48.202;16.260;2023-04-03T12:55:59;4.30;;;3.20;;
48205;SDS011;33995;48.202;16.260;2023-04-03T12:58:52;4.07;;;3.20;;
48205;SDS011;33995;48.202;16.260;2023-04-03T13:01:25;3.60;;;3.30;;
48205;SDS011;33995;48.202;16.260;2023-04-03T13:03:57;3.73;;;3.33;;
48205;SDS011;33995;48.202;16.260;2023-04-03T13:06:43;3.60;;;3.30;;
48205;SDS011;33995;48.202;16.260;2023-04-03T13:12:15;5.77;;;4.70;;
48205;SDS011;33995;48.202;16.260;2023-04-03T13:14:58;4.20;;;3.87;;
48205;SDS011;33995;48.202;16.260;2023-04-03T13:17:38;4.87;;;3.97;;
48205;SDS011;33995;48.202;16.260;2023-04-03T13:20:12;3.33;;;3.03;;
48205;SDS011;33995;48.202;16.260;2023-04-03T13:23:05;4.50;;;4.10;;
48205;SDS011;33995;48.202;16.260;2023-04-03T13:25:41;3.40;;;3.10;;
48205;SDS011;33995;48.202;16.260;2023-04-03T13:28:22;3.27;;;2.90;;
48205;SDS011;33995;48.202;16.260;2023-04-03T13:31:12;3.73;;;3.37;;
48205;SDS011;33995;48.202;16.260;2023-04-03T13:36:56;3.73;;;3.17;;
48205;SDS011;33995;48.202;16.260;2023-04-03T13:39:31;4.70;;;3.40;;
48205;SDS011;33995;48.202;16.260;2023-04-03T13:42:14;3.40;;;3.10;;
48205;SDS011;33995;48.202;16.260;2023-04-03T13:45:08;3.40;;;2.80;;
48205;SDS011;33995;48.202;16.260;2023-04-03T13:47:40;2.77;;;2.53;;
48205;SDS011;33995;48.202;16.260;2023-04-03T13:56:52;3.43;;;3.00;;
48205;SDS011;33995;48.202;16.260;2023-04-03T13:58:59;3.30;;;3.00;;
48205;SDS011;33995;48.202;16.260;2023-04-03T14:01:46;3.73;;;3.10;;
48205;SDS011;33995;48.202;16.260;2023-04-03T14:04:51;3.47;;;2.80;;
48205;SDS011;33995;48.202;16.260;2023-04-03T14:07:39;3.07;;;2.77;;
48205;SDS011;33995;48.202;16.260;2023-04-03T14:10:11;3.30;;;3.00;;
48205;SDS011;33995;48.202;16.260;2023-04-03T14:12:42;3.23;;;2.50;;
48205;SDS011;33995;48.202;16.260;2023-04-03T14:15:24;4.00;;;3.20;;
48205;SDS011;33995;48.202;16.260;2023-04-03T14:17:56;3.40;;;3.10;;
48205;SDS011;33995;48.202;16.260;2023-04-03T14:20:31;3.50;;;2.70;;
48205;SDS011;33995;48.202;16.260;2023-04-03T14:23:04;3.80;;;2.80;;
48205;SDS011;33995;48.202;16.260;2023-04-03T14:25:41;3.23;;;2.80;;
48205;SDS011;33995;48.202;16.260;2023-04-03T14:28:20;3.90;;;2.87;;
48205;SDS011;33995;48.202;16.260;2023-04-03T14:30:50;2.63;;;2.43;;
48205;SDS011;33995;48.202;16.260;2023-04-03T14:33:22;4.80;;;2.90;;
48205;SDS011;33995;48.202;16.260;2023-04-03T14:35:53;3.43;;;2.87;;
48205;SDS011;33995;48.202;16.260;2023-04-03T14:38:26;3.00;;;2.77;;
48205;SDS011;33995;48.202;16.260;2023-04-03T14:40:58;4.27;;;3.03;;
48205;SDS011;33995;48.202;16.260;2023-04-03T14:43:43;4.50;;;3.30;;
48205;SDS011;33995;48.202;16.260;2023-04-03T14:49:15;4.00;;;3.00;;
48205;SDS011;33995;48.202;16.260;2023-04-03T14:51:49;3.03;;;2.70;;
48205;SDS011;33995;48.202;16.260;2023-04-03T14:54:21;3.77;;;2.77;;
48205;SDS011;33995;48.202;16.260;2023-04-03T14:56:55;4.23;;;2.80;;
48205;SDS011;33995;48.202;16.260;2023-04-03T14:59:27;3.47;;;2.90;;
48205;SDS011;33995;48.202;16.260;2023-04-03T15:01:56;3.17;;;2.90;;
48205;SDS011;33995;48.202;16.260;2023-04-03T15:04:27;3.30;;;3.00;;
48205;SDS011;33995;48.202;16.260;2023-04-03T15:07:00;5.03;;;3.00;;
48205;SDS011;33995;48.202;16.260;2023-04-03T15:09:30;3.97;;;3.10;;
48205;SDS011;33995;48.202;16.260;2023-04-03T15:12:03;3.67;;;3.03;;
48205;SDS011;33995;48.202;16.260;2023-04-03T15:14:32;3.70;;;3.27;;
48205;SDS011;33995;48.202;16.260;2023-04-03T15:17:15;4.13;;;3.30;;
48205;SDS011;33995;48.202;16.260;2023-04-03T15:19:51;3.73;;;3.33;;
48205;SDS011;33995;48.202;16.260;2023-04-03T15:22:22;3.40;;;3.03;;
48205;SDS011;33995;48.202;16.260;2023-04-03T15:24:49;3.63;;;3.20;;
48205;SDS011;33995;48.202;16.260;2023-04-03T15:27:20;5.13;;;3.10;;
48205;SDS011;33995;48.202;16.260;2023-04-03T15:29:51;3.20;;;2.90;;
48205;SDS011;33995;48.202;16.260;2023-04-03T15:32:26;3.00;;;2.80;;
48205;SDS011;33995;48.202;16.260;2023-04-03T15:35:01;2.70;;;2.50;;
48205;SDS011;33995;48.202;16.260;2023-04-03T15:37:32;2.63;;;2.43;;
48205;SDS011;33995;48.202;16.260;2023-04-03T15:40:03;3.33;;;2.90;;
48205;SDS011;33995;48.202;16.260;2023-04-03T15:42:47;3.17;;;2.83;;
48205;SDS011;33995;48.202;16.260;2023-04-03T15:45:22;3.30;;;2.47;;
48205;SDS011;33995;48.202;16.260;2023-04-03T15:47:51;3.40;;;2.70;;
48205;SDS011;33995;48.202;16.260;2023-04-03T15:50:21;3.37;;;2.80;;
48205;SDS011;33995;48.202;16.260;2023-04-03T15:52:54;3.73;;;2.87;;
48205;SDS011;33995;48.202;16.260;2023-04-03T15:55:22;2.67;;;2.47;;
48205;SDS011;33995;48.202;16.260;2023-04-03T15:57:59;2.57;;;2.37;;
48205;SDS011;33995;48.202;16.260;2023-04-03T16:00:32;2.70;;;2.50;;
48205;SDS011;33995;48.202;16.260;2023-04-03T16:03:11;4.63;;;2.90;;
48205;SDS011;33995;48.202;16.260;2023-04-03T16:05:46;3.30;;;2.63;;
48205;SDS011;33995;48.202;16.260;2023-04-03T16:08:17;2.97;;;2.50;;
48205;SDS011;33995;48.202;16.260;2023-04-03T16:10:47;3.20;;;2.60;;
48205;SDS011;33995;48.202;16.260;2023-04-03T16:13:15;3.30;;;2.90;;
48205;SDS011;33995;48.202;16.260;2023-04-03T16:15:47;4.27;;;2.67;;
48205;SDS011;33995;48.202;16.260;2023-04-03T16:18:20;3.13;;;2.40;;
48205;SDS011;33995;48.202;16.260;2023-04-03T16:20:54;4.13;;;2.90;;
48205;SDS011;33995;48.202;16.260;2023-04-03T16:23:22;2.80;;;2.60;;
48205;SDS011;33995;48.202;16.260;2023-04-03T16:25:56;3.33;;;2.70;;
48205;SDS011;33995;48.202;16.260;2023-04-03T16:28:26;2.80;;;2.50;;
48205;SDS011;33995;48.202;16.260;2023-04-03T16:31:00;3.83;;;3.20;;
48205;SDS011;33995;48.202;16.260;2023-04-03T16:33:34;4.67;;;3.30;;
48205;SDS011;33995;48.202;16.260;2023-04-03T16:36:06;3.77;;;3.00;;
48205;SDS011;33995;48.202;16.260;2023-04-03T16:38:34;3.53;;;2.63;;
48205;SDS011;33995;48.202;16.260;2023-04-03T16:41:06;2.80;;;2.50;;
48205;SDS011;33995;48.202;16.260;2023-04-03T16:43:38;4.50;;;2.70;;
48205;SDS011;33995;48.202;16.260;2023-04-03T16:46:15;3.53;;;2.80;;
48205;SDS011;33995;48.202;16.260;2023-04-03T16:48:44;3.07;;;2.77;;
48205;SDS011;33995;48.202;16.260;2023-04-03T16:51:16;3.20;;;2.90;;
48205;SDS011;33995;48.202;16.260;2023-04-03T16:53:46;4.07;;;2.90;;
48205;SDS011;33995;48.202;16.260;2023-04-03T16:56:20;4.03;;;3.27;;
48205;SDS011;33995;48.202;16.260;2023-04-03T16:58:52;3.37;;;3.00;;
48205;SDS011;33995;48.202;16.260;2023-04-03T17:01:21;3.97;;;2.73;;
48205;SDS011;33995;48.202;16.260;2023-04-03T17:03:51;3.73;;;2.67;;
48205;SDS011;33995;48.202;16.260;2023-04-03T17:06:22;3.20;;;2.70;;
48205;SDS011;33995;48.202;16.260;2023-04-03T17:08:55;3.80;;;3.00;;
48205;SDS011;33995;48.202;16.260;2023-04-03T17:11:28;3.70;;;2.93;;
48205;SDS011;33995;48.202;16.260;2023-04-03T17:13:57;3.23;;;2.80;;
48205;SDS011;33995;48.202;16.260;2023-04-03T17:16:26;3.77;;;2.77;;
48205;SDS011;33995;48.202;16.260;2023-04-03T17:18:55;3.77;;;2.70;;
48205;SDS011;33995;48.202;16.260;2023-04-03T17:21:32;3.67;;;2.97;;
48205;SDS011;33995;48.202;16.260;2023-04-03T17:24:10;4.07;;;2.90;;
48205;SDS011;33995;48.202;16.260;2023-04-03T17:26:43;3.20;;;2.80;;
48205;SDS011;33995;48.202;16.260;2023-04-03T17:29:14;3.57;;;2.90;;
48205;SDS011;33995;48.202;16.260;2023-04-03T17:31:48;3.20;;;2.80;;